Архив погоды в Агзу

Метеограмма Агзу
Пятница, 26 Мая
Время местн. Темп Ветер Видим Явления Облачность нижн/средн/верх Атм. давл. Влжн Точка росы ВНГО R Сост. почвы Tg s
Напр Скр Прв ур.ст ур.м изм
10:00 - +11.3° Ю,Ю-З 1 - - - - 746 761 -0.4 68% +5.7° - - - - -
07:00 +6.8° штиль 0 - более 50 км - облачно 746 762 +0.1 88% +5° 1 км 0 Влажная (без луж) +8° -
04:00 - +5.8° штиль 0 - - - - 746 762 -0.7 89% +4.2° - - - - -
01:00 +7.1° В 1 - 20 км - облачно 747 762 +0.3 86% +5° 1.5 км - - - -
Четверг, 25 Мая
Время местн. Темп Ветер Видим Явления Облачность нижн/средн/верх Атм. давл. Влжн Точка росы ВНГО R Сост. почвы Tg s
Напр Скр Прв ур.ст ур.м изм
22:00 - +8.5° В,С-В 1 - - - - 747 762 +1.7 77% +4.7° - - - - -
19:00 +12.6° В,Ю-В 2 - более 50 км - переменная облачность 745 760 +1.2 65% +6.1° 1.5 км 0 - - -
16:00 - +14.3° Ю 4 - - - - 744 759 -0.3 56% +5.6° - - - - -
13:00 +13.6° В 1 - более 50 км - облачно с прояснениями 744 759 -0.6 53% +4.1° 1.5 км - - - -
10:00 - +10.5° Ю-В 1 - - - - 745 760 +0.2 71% +5.4° - - - - -
07:00 +6.5° Ю-З 1 - более 50 км ливневый дождь преимущественно облачно 745 760 +0.9 98% +6.2° 600 м 6 Влажная (без луж) +8° -
04:00 - +5.9° штиль 0 - - - - 744 759 +0.4 99% +5.7° - - - - -
01:00 - +6.3° штиль 0 - - - - 743 759 0 97% +5.9° - - - - -
Среда, 24 Мая
Время местн. Темп Ветер Видим Явления Облачность нижн/средн/верх Атм. давл. Влжн Точка росы ВНГО R Сост. почвы Tg s
Напр Скр Прв ур.ст ур.м изм
22:00 - +6.8° штиль 0 - - - - 743 759 +1.4 96% +6.2° - - - - -
19:00 +8.1° Ю 2 - более 50 км - облачно 742 757 +1.4 86% +5.9° 1 км 0.3 - - -
16:00 - +10.9° Ю 4 - - - - 741 755 -0.2 77% +7° - - - - -
13:00 +12.5° Ю 2 - более 50 км - облачно 740 755 -0.2 68% +6.8° 1 км - - - -
10:00 - +9.2° штиль 0 - - - - 741 756 +0.1 86% +6.9° - - - - -
07:00 +6.9° штиль 0 - 20 км - облачно 741 756 +0.5 98% +6.6° 600 м 2 Влажная (без луж) +8° -
04:00 - +6.2° штиль 0 - - - - 740 755 -0.5 98% +5.9° - - - - -
01:00 +6.3° штиль 0 - 10 км слабый ливневый дождь облачно 741 756 -0.8 98% +6° 600 м - - - -
Вторник, 23 Мая
Время местн. Темп Ветер Видим Явления Облачность нижн/средн/верх Атм. давл. Влжн Точка росы ВНГО R Сост. почвы Tg s
Напр Скр Прв ур.ст ур.м изм
22:00 - +6.5° штиль 0 - - - - 741 757 -0.5 97% +6.1° - - - - -
19:00 +8.4° штиль 0 - 10 км слабый непрерывный дождь облачно 742 757 -0.7 95% +7.6° 1 км 4 - - -
16:00 - +9.6° штиль 0 - - - - 743 758 -0.3 88% +7.7° - - - - -
13:00 +10.3° штиль 0 - более 50 км - облачно 743 758 -1.1 49% +0.1° 1.5 км - - - -
10:00 - +8.2° штиль 0 - - - - 744 759 -1.7 58% +0.5° - - - - -
07:00 +3.1° штиль 0 - более 50 км - облачно 746 761 -0.3 84% +0.7° 1.5 км 0 Сухая (без трещин) +6° -